Startpagina
METAR-TAF:

METAR-TAF

Vliegvelden :

Craig, Colorado, Verenigde Staten

breedte: 40-29-36N, lengte: 107-31-25W, hoogte: 1888 m

Actueel weer

Dit bericht is 53 minuten geleden gemaakt, om 23:53 UTC
Wind 4 kt uit het zuidzuidwesten
Temperatuur 4°C
Vochtigheid 60%
Druk 1015 hPa
Zicht: 16.1 km
Onbewolkt

METAR: KCAG 212353Z AUTO 21004KT 10SM CLR 04/M03 A2996 RMK AO2 SLP181 T00391033 10056 20000 56020

Tijdstip: 18:46 (00:46 UTC)


TAF: ontbreekt

Waarnemingen en weersverwachtingen van meer dan 4000 vliegvelden (METAR en TAF).

De beschikbare stations zijn de gele en rode punten op de kaart.

Ga met uw muis naar het station om de naam te zien.

Klik dan om waarnemingen en weersverwachtingen te zien.

kaart wijzigen: klik op de groene knoppen met een zwart kruis om in te zoomen, op de groene knop met een streepje om uit te zoomen of op de groene pijlen voor aangrenzende kaarten.


METAR-TAF: